Time;durP1;ratioP1;P1;durP2;ratioP2;P2;SDS_P1;SDS_P2;PMS_P1;PMS_P2;Temp;Humidity;BMP_temperature;BMP_pressure;BME280_temperature;BME280_humidity;BME280_pressure;Samples;Min_cycle;Max_cycle;Signal;HPM_P1;HPM_P2
2023/01/31 00:00:21;;;;;;;0.70;0.70;;;3.30;99.90;;;;;;5000308;28;20391;-92
2023/01/31 00:02:50;;;;;;;0.80;0.80;;;3.50;99.90;;;;;;4984723;28;20044;-92
2023/01/31 00:05:18;;;;;;;0.70;0.70;;;3.40;99.90;;;;;;4983837;28;20133;-93
2023/01/31 00:07:45;;;;;;;0.70;0.70;;;3.30;99.90;;;;;;4995271;28;20486;-91
2023/01/31 00:10:11;;;;;;;0.70;0.70;;;3.30;99.90;;;;;;4988670;28;20136;-93
2023/01/31 00:12:37;;;;;;;0.70;0.70;;;3.30;99.90;;;;;;4990841;28;20510;-92
2023/01/31 00:15:19;;;;;;;;;;;;;;;;;;;;;
2023/01/31 00:17:49;;;;;;;0.80;0.80;;;3.10;99.90;;;;;;5009086;28;20052;-93
2023/01/31 00:20:15;;;;;;;0.73;0.73;;;3.20;99.90;;;;;;4999120;28;20183;-92
2023/01/31 00:22:46;;;;;;;0.70;0.70;;;3.10;99.90;;;;;;4979386;28;20939;-93
2023/01/31 00:25:52;;;;;;;0.70;0.70;;;3.20;99.90;;;;;;4990921;28;20060;-93
2023/01/31 00:28:27;;;;;;;0.80;0.80;;;3.10;99.90;;;;;;4987035;28;20492;-95
2023/01/31 00:37:42;;;;;;;0.80;0.80;;;3.10;99.90;;;;;;4990891;28;20449;-94
2023/01/31 00:40:08;;;;;;;0.80;0.80;;;3.40;99.90;;;;;;4984890;28;20052;-92
2023/01/31 00:42:43;;;;;;;0.80;0.80;;;3.40;99.90;;;;;;4986893;28;20123;-93
2023/01/31 00:45:09;;;;;;;0.80;0.80;;;3.30;99.90;;;;;;4984407;28;20056;-92
2023/01/31 00:47:36;;;;;;;0.80;0.80;;;3.40;99.90;;;;;;4984256;28;20151;-91
2023/01/31 00:50:03;;;;;;;0.80;0.80;;;3.30;99.90;;;;;;4985383;28;20051;-92
2023/01/31 00:52:32;;;;;;;0.70;0.70;;;3.30;99.90;;;;;;4982346;28;20041;-93
2023/01/31 00:55:13;;;;;;;0.70;0.70;;;3.20;99.90;;;;;;4958696;28;20407;-95
2023/01/31 00:57:39;;;;;;;0.80;0.80;;;3.40;99.90;;;;;;4957642;28;20077;-92
2023/01/31 01:00:05;;;;;;;0.70;0.70;;;3.30;99.90;;;;;;4957143;28;20581;-93
2023/01/31 01:02:31;;;;;;;0.70;0.70;;;3.30;99.90;;;;;;4967500;28;20064;-91
2023/01/31 01:05:00;;;;;;;0.70;0.70;;;3.40;99.90;;;;;;4957502;28;21416;-91
2023/01/31 01:07:28;;;;;;;0.80;0.80;;;3.20;99.90;;;;;;4923200;28;20385;-94
2023/01/31 01:09:57;;;;;;;0.80;0.80;;;3.40;99.90;;;;;;4940048;28;20534;-92
2023/01/31 01:12:45;;;;;;;0.70;0.70;;;3.40;99.90;;;;;;4935915;28;20052;-92
2023/01/31 01:15:11;;;;;;;0.73;0.73;;;3.40;99.90;;;;;;4936973;28;20542;-93
2023/01/31 01:17:40;;;;;;;0.70;0.70;;;3.50;99.90;;;;;;4938455;28;21018;-93
2023/01/31 01:20:09;;;;;;;0.70;0.70;;;3.50;99.90;;;;;;4960038;28;20495;-92
2023/01/31 01:22:53;;;;;;;0.80;0.80;;;3.30;99.90;;;;;;4944180;28;20284;-92
2023/01/31 01:25:22;;;;;;;0.75;0.75;;;3.30;99.90;;;;;;4950165;28;20059;-92
2023/01/31 01:27:47;;;;;;;0.73;0.73;;;3.40;99.90;;;;;;4981888;28;20641;-93
2023/01/31 01:30:30;;;;;;;0.70;0.70;;;3.40;99.90;;;;;;4983303;28;20048;-94
2023/01/31 01:33:04;;;;;;;0.70;0.70;;;3.30;99.90;;;;;;4979234;28;20129;-94
2023/01/31 01:35:30;;;;;;;0.80;0.80;;;3.40;99.90;;;;;;4985718;28;20218;-91
2023/01/31 01:37:59;;;;;;;0.75;0.75;;;3.40;99.90;;;;;;4967110;28;20093;-94
2023/01/31 01:41:16;;;;;;;0.70;0.70;;;3.60;99.90;;;;;;4988089;28;20624;-95
2023/01/31 01:47:49;;;;;;;0.70;0.70;;;3.50;99.90;;;;;;4986030;28;20064;-94
2023/01/31 01:55:20;;;;;;;0.70;0.70;;;3.60;99.90;;;;;;4951731;28;20041;-95
2023/01/31 01:58:56;;;;;;;0.80;0.80;;;3.50;99.90;;;;;;4905835;28;20403;-95
2023/01/31 02:01:42;;;;;;;0.80;0.80;;;3.60;99.90;;;;;;4850862;28;20215;-94
2023/01/31 02:04:37;;;;;;;;;;;3.50;99.90;;;;;;4888126;28;20055;-94
2023/01/31 02:07:54;;;;;;;0.70;0.70;;;3.50;99.90;;;;;;4930352;28;20846;-94
2023/01/31 02:11:09;;;;;;;0.70;0.70;;;3.30;99.90;;;;;;4891901;28;20383;-93
2023/01/31 02:13:55;;;;;;;0.70;0.70;;;3.40;99.90;;;;;;4902161;28;20085;-91
2023/01/31 02:16:23;;;;;;;0.70;0.70;;;3.30;99.90;;;;;;4925250;28;20390;-93
2023/01/31 02:18:50;;;;;;;0.80;0.80;;;3.30;99.90;;;;;;4923123;28;20163;-91
2023/01/31 02:21:44;;;;;;;;;;;;;;;;;;;;;
2023/01/31 02:24:40;;;;;;;0.80;0.80;;;3.30;99.90;;;;;;4919225;28;20069;-91
2023/01/31 02:27:14;;;;;;;0.80;0.80;;;3.40;99.90;;;;;;4929208;28;20046;-90
2023/01/31 02:30:01;;;;;;;0.80;0.80;;;3.40;99.90;;;;;;5001136;28;20960;-92
2023/01/31 02:33:01;;;;;;;0.70;0.70;;;3.30;99.90;;;;;;4986706;28;20049;-92
2023/01/31 02:36:11;;;;;;;0.70;0.70;;;3.20;99.90;;;;;;4985404;28;20311;-91
2023/01/31 02:39:17;;;;;;;0.70;0.70;;;3.00;99.90;;;;;;4987455;28;20052;-92
2023/01/31 02:41:56;;;;;;;0.70;0.70;;;3.10;99.90;;;;;;4982599;28;20144;-92
2023/01/31 02:45:00;;;;;;;0.70;0.70;;;3.10;99.90;;;;;;4980408;28;20075;-91
2023/01/31 02:47:42;;;;;;;0.70;0.70;;;3.10;99.90;;;;;;4959999;28;20049;-90
2023/01/31 02:50:37;;;;;;;0.70;0.70;;;3.10;99.90;;;;;;4960416;28;20702;-92
2023/01/31 02:54:08;;;;;;;0.70;0.70;;;3.10;99.90;;;;;;4964591;28;20433;-91
2023/01/31 02:57:06;;;;;;;0.80;0.80;;;3.30;99.90;;;;;;4918218;28;20050;-92
2023/01/31 02:59:34;;;;;;;0.70;0.70;;;3.30;99.90;;;;;;4898308;28;20038;-90
2023/01/31 03:02:03;;;;;;;0.70;0.70;;;3.20;99.90;;;;;;4962921;28;20102;-91
2023/01/31 03:04:35;;;;;;;0.80;0.80;;;3.30;99.90;;;;;;4958152;28;20084;-90
2023/01/31 03:07:25;;;;;;;0.70;0.70;;;3.30;99.90;;;;;;4965217;28;20384;-92
2023/01/31 03:09:51;;;;;;;0.80;0.80;;;3.30;99.90;;;;;;4949157;28;20780;-91
2023/01/31 03:12:20;;;;;;;0.70;0.70;;;3.40;99.90;;;;;;4955249;28;20107;-91
2023/01/31 03:15:24;;;;;;;0.80;0.80;;;3.50;99.90;;;;;;4961986;28;20037;-89
2023/01/31 03:17:59;;;;;;;0.70;0.70;;;3.40;99.90;;;;;;4976852;28;20045;-89
2023/01/31 03:20:49;;;;;;;0.70;0.70;;;3.40;99.90;;;;;;4958621;28;20400;-90
2023/01/31 03:23:28;;;;;;;0.70;0.70;;;3.50;99.90;;;;;;4959389;28;20045;-89
2023/01/31 03:25:56;;;;;;;0.70;0.70;;;3.50;99.90;;;;;;4962008;28;20447;-91
2023/01/31 03:28:29;;;;;;;0.70;0.70;;;3.60;99.90;;;;;;4954259;28;20055;-90
2023/01/31 03:31:06;;;;;;;0.70;0.70;;;3.50;99.90;;;;;;4953008;28;20216;-90
2023/01/31 03:33:35;;;;;;;0.70;0.70;;;3.70;99.90;;;;;;4954858;28;21389;-89
2023/01/31 03:36:20;;;;;;;0.70;0.70;;;3.70;99.90;;;;;;4988464;28;20514;-92
2023/01/31 03:39:10;;;;;;;0.75;0.75;;;3.70;99.90;;;;;;4985463;28;20707;-91
2023/01/31 03:42:01;;;;;;;0.70;0.70;;;3.70;99.90;;;;;;4989175;28;20043;-91
2023/01/31 03:45:01;;;;;;;0.80;0.80;;;3.80;99.90;;;;;;4963847;28;20185;-89
2023/01/31 03:47:42;;;;;;;0.70;0.70;;;3.80;99.90;;;;;;4977164;28;20091;-91
2023/01/31 03:50:37;;;;;;;0.70;0.70;;;3.80;99.90;;;;;;4974981;28;20052;-87
2023/01/31 03:53:45;;;;;;;0.70;0.70;;;3.80;99.90;;;;;;4958449;28;20052;-91
2023/01/31 03:56:30;;;;;;;0.70;0.70;;;3.90;99.90;;;;;;4956741;28;20407;-89
2023/01/31 03:59:13;;;;;;;0.80;0.80;;;4.00;99.90;;;;;;4974453;28;20040;-90
2023/01/31 04:01:44;;;;;;;0.80;0.80;;;3.90;99.90;;;;;;4986943;28;20814;-91
2023/01/31 04:04:16;;;;;;;0.70;0.70;;;4.00;99.90;;;;;;4995777;28;20048;-91
2023/01/31 04:06:52;;;;;;;0.80;0.80;;;4.00;99.90;;;;;;4975764;28;20078;-90
2023/01/31 04:09:18;;;;;;;0.70;0.70;;;4.00;99.90;;;;;;4966962;28;20505;-91
2023/01/31 04:11:47;;;;;;;0.70;0.70;;;4.10;99.90;;;;;;4970648;28;20049;-89
2023/01/31 04:14:14;;;;;;;0.70;0.70;;;4.10;99.90;;;;;;4970497;28;20055;-90
2023/01/31 04:16:40;;;;;;;0.70;0.70;;;4.20;99.90;;;;;;4979666;28;20079;-91
2023/01/31 04:19:15;;;;;;;0.70;0.70;;;4.10;99.90;;;;;;4993910;28;20551;-90
2023/01/31 04:21:44;;;;;;;0.73;0.73;;;4.10;99.90;;;;;;5013872;28;20175;-90
2023/01/31 04:24:10;;;;;;;0.70;0.70;;;4.10;99.90;;;;;;4978047;28;20525;-90
2023/01/31 04:26:38;;;;;;;0.80;0.80;;;4.10;99.90;;;;;;4973011;28;20448;-88
2023/01/31 04:29:04;;;;;;;0.70;0.70;;;4.10;99.90;;;;;;4959250;28;20776;-90
2023/01/31 04:31:30;;;;;;;0.75;0.75;;;4.10;99.90;;;;;;4978459;28;20047;-91
2023/01/31 04:33:59;;;;;;;0.70;0.70;;;4.20;99.90;;;;;;4979345;28;20048;-92
2023/01/31 04:36:34;;;;;;;0.70;0.70;;;4.10;99.90;;;;;;4977069;28;20040;-93
2023/01/31 04:39:02;;;;;;;0.70;0.70;;;4.20;99.90;;;;;;4977719;28;20091;-89
2023/01/31 04:41:31;;;;;;;0.70;0.70;;;4.20;99.90;;;;;;4970740;28;20512;-91
2023/01/31 04:43:57;;;;;;;0.70;0.70;;;4.30;99.90;;;;;;4978619;28;20048;-89
2023/01/31 04:46:23;;;;;;;0.70;0.70;;;4.40;99.90;;;;;;4987551;28;20208;-93
2023/01/31 04:48:52;;;;;;;0.70;0.70;;;4.40;99.90;;;;;;4976476;28;20052;-91
2023/01/31 04:51:23;;;;;;;0.70;0.70;;;4.40;99.90;;;;;;4975540;28;20556;-92
2023/01/31 04:53:49;;;;;;;0.70;0.70;;;4.30;99.90;;;;;;4972321;28;20052;-92
2023/01/31 04:56:18;;;;;;;0.70;0.70;;;4.30;99.90;;;;;;4962426;28;20489;-92
2023/01/31 04:58:47;;;;;;;0.77;0.77;;;4.30;99.90;;;;;;4974340;28;20056;-93
2023/01/31 05:01:22;;;;;;;0.70;0.70;;;4.30;99.90;;;;;;4975713;28;20045;-91
2023/01/31 05:04:03;;;;;;;;;;;;;;;;;;;;;
2023/01/31 05:06:43;;;;;;;0.70;0.70;;;4.30;99.90;;;;;;4991532;28;20044;-90
2023/01/31 05:09:16;;;;;;;0.70;0.70;;;4.40;99.90;;;;;;4995600;28;20056;-91
2023/01/31 05:11:43;;;;;;;0.70;0.70;;;4.50;99.90;;;;;;4981616;28;20233;-90
2023/01/31 05:14:09;;;;;;;0.70;0.70;;;4.50;99.90;;;;;;4971099;28;20482;-92
2023/01/31 05:16:38;;;;;;;0.80;0.80;;;4.50;99.90;;;;;;4955888;28;20097;-93
2023/01/31 05:19:03;;;;;;;0.70;0.70;;;4.60;99.90;;;;;;4978710;28;20049;-91
2023/01/31 05:21:59;;;;;;;0.73;0.73;;;4.50;99.90;;;;;;5007821;28;20093;-94
2023/01/31 05:24:32;;;;;;;0.70;0.70;;;4.70;99.90;;;;;;4984966;28;20052;-92
2023/01/31 05:27:00;;;;;;;;;;;4.80;99.90;;;;;;4983862;28;20330;-90
2023/01/31 05:29:28;;;;;;;0.70;0.70;;;4.60;99.90;;;;;;4983002;28;19931;-92
2023/01/31 05:32:05;;;;;;;0.80;0.80;;;4.70;99.90;;;;;;5014064;28;20131;-91
2023/01/31 05:34:42;;;;;;;;;;;;;;;;;;;;;
2023/01/31 05:37:18;;;;;;;0.80;0.80;;;4.70;99.90;;;;;;5002353;28;20053;-92
2023/01/31 05:39:47;;;;;;;0.80;0.80;;;4.90;99.90;;;;;;4988287;28;20044;-91
2023/01/31 05:42:25;;;;;;;0.70;0.70;;;4.90;99.90;;;;;;4959083;28;20052;-93
2023/01/31 05:44:52;;;;;;;0.70;0.70;;;5.00;99.90;;;;;;4990776;28;20056;-92
2023/01/31 05:47:18;;;;;;;0.70;0.70;;;4.90;99.90;;;;;;4982412;28;20048;-90
2023/01/31 05:49:53;;;;;;;0.70;0.70;;;4.80;99.90;;;;;;5000449;28;20044;-92
2023/01/31 05:52:19;;;;;;;0.70;0.70;;;5.00;99.90;;;;;;4965300;28;20121;-93
2023/01/31 05:57:37;;;;;;;0.70;0.70;;;5.00;99.90;;;;;;5000665;28;20052;-90
2023/01/31 06:00:03;;;;;;;0.70;0.70;;;5.10;99.90;;;;;;4968239;28;20048;-92
2023/01/31 06:02:30;;;;;;;0.70;0.70;;;5.20;99.90;;;;;;4987695;28;20040;-92
2023/01/31 06:04:56;;;;;;;0.70;0.70;;;5.30;99.90;;;;;;4984805;28;20144;-90
2023/01/31 06:07:22;;;;;;;0.70;0.70;;;5.10;99.90;;;;;;4987403;28;20238;-92
2023/01/31 06:09:51;;;;;;;0.70;0.70;;;5.40;99.90;;;;;;4989077;28;20075;-89
2023/01/31 06:12:52;;;;;;;0.70;0.70;;;5.40;99.90;;;;;;4967876;28;20338;-94
2023/01/31 06:15:22;;;;;;;0.70;0.70;;;5.50;99.90;;;;;;4980770;28;20156;-91
2023/01/31 06:17:48;;;;;;;0.70;0.70;;;5.50;99.90;;;;;;4989583;28;20058;-89
2023/01/31 06:20:17;;;;;;;0.70;0.70;;;5.60;99.90;;;;;;4975564;28;20533;-90
2023/01/31 06:22:43;;;;;;;0.70;0.70;;;5.50;99.90;;;;;;5006609;28;20040;-91
2023/01/31 06:25:29;;;;;;;0.70;0.70;;;5.60;99.90;;;;;;4986623;28;20183;-93
2023/01/31 06:27:59;;;;;;;0.70;0.70;;;5.60;99.90;;;;;;4966989;28;20046;-91
2023/01/31 06:30:28;;;;;;;0.70;0.70;;;5.80;99.90;;;;;;4980246;28;20059;-90
2023/01/31 06:32:53;;;;;;;0.70;0.70;;;5.70;99.90;;;;;;4970691;28;20036;-91
2023/01/31 06:35:25;;;;;;;0.70;0.70;;;5.80;99.90;;;;;;4962995;28;20082;-95
2023/01/31 06:37:53;;;;;;;0.70;0.70;;;5.90;99.90;;;;;;4967054;28;20048;-92
2023/01/31 06:40:24;;;;;;;0.70;0.70;;;5.90;99.90;;;;;;4984768;28;20072;-92
2023/01/31 06:42:58;;;;;;;0.70;0.70;;;5.80;99.90;;;;;;4994224;28;20051;-92
2023/01/31 06:45:28;;;;;;;0.70;0.70;;;5.90;99.90;;;;;;4984076;28;20117;-91
2023/01/31 06:48:18;;;;;;;0.70;0.70;;;6.00;99.90;;;;;;4989094;28;20512;-91
2023/01/31 06:50:44;;;;;;;0.70;0.70;;;6.00;99.90;;;;;;4978506;28;20049;-91
2023/01/31 06:53:13;;;;;;;0.70;0.70;;;6.00;99.90;;;;;;4979263;28;20134;-91
2023/01/31 06:55:39;;;;;;;0.70;0.70;;;6.00;99.90;;;;;;4978924;28;20541;-89
2023/01/31 06:58:05;;;;;;;0.70;0.70;;;6.00;99.90;;;;;;4977283;28;20690;-90
2023/01/31 07:00:31;;;;;;;0.70;0.70;;;6.00;99.90;;;;;;4975460;28;20048;-89
2023/01/31 07:02:59;;;;;;;0.70;0.70;;;6.00;99.90;;;;;;4976023;28;20234;-91
2023/01/31 07:05:34;;;;;;;0.70;0.70;;;6.00;99.90;;;;;;4966233;28;20455;-93
2023/01/31 07:08:06;;;;;;;0.70;0.70;;;6.10;99.90;;;;;;4982656;28;20054;-90
2023/01/31 07:10:38;;;;;;;0.70;0.70;;;6.00;99.90;;;;;;4991175;28;20509;-92
2023/01/31 07:13:10;;;;;;;0.70;0.70;;;6.10;99.90;;;;;;5003808;28;20067;-94
2023/01/31 07:15:35;;;;;;;0.70;0.70;;;6.10;99.90;;;;;;4987766;28;20298;-92
2023/01/31 07:18:05;;;;;;;0.70;0.70;;;6.00;99.90;;;;;;4983782;28;20423;-90
2023/01/31 07:20:41;;;;;;;0.70;0.70;;;6.10;99.90;;;;;;4990619;28;20060;-94
2023/01/31 07:23:10;;;;;;;0.70;0.70;;;6.10;99.90;;;;;;4980731;28;20067;-92
2023/01/31 07:25:39;;;;;;;0.80;0.80;;;6.10;99.90;;;;;;4992161;28;20105;-93
2023/01/31 07:28:04;;;;;;;0.70;0.70;;;6.10;99.90;;;;;;4975605;28;20531;-90
2023/01/31 07:30:36;;;;;;;0.70;0.70;;;6.20;99.90;;;;;;4997184;28;20123;-92
2023/01/31 07:33:04;;;;;;;0.70;0.70;;;6.20;99.90;;;;;;4988464;28;20429;-92
2023/01/31 07:35:33;;;;;;;0.60;0.60;;;6.20;99.90;;;;;;4961282;28;20051;-92
2023/01/31 07:37:58;;;;;;;0.70;0.70;;;6.20;99.90;;;;;;4981597;28;20074;-90
2023/01/31 07:40:24;;;;;;;0.70;0.70;;;6.30;99.90;;;;;;4975375;28;20426;-88
2023/01/31 07:42:53;;;;;;;0.70;0.70;;;6.30;99.90;;;;;;4995434;28;20079;-90
2023/01/31 07:45:19;;;;;;;0.70;0.70;;;6.30;99.90;;;;;;4966331;28;20106;-93
2023/01/31 07:47:47;;;;;;;0.70;0.70;;;6.30;99.90;;;;;;4977941;28;20056;-89
2023/01/31 07:50:13;;;;;;;0.70;0.70;;;6.40;99.90;;;;;;4991710;28;20301;-89
2023/01/31 07:52:39;;;;;;;0.70;0.70;;;6.40;99.90;;;;;;4983218;28;20107;-92
2023/01/31 07:55:08;;;;;;;0.70;0.70;;;6.40;99.90;;;;;;4980851;28;20386;-93
2023/01/31 07:57:37;;;;;;;0.60;0.60;;;6.40;99.90;;;;;;4954440;28;20387;-92
2023/01/31 08:03:31;;;;;;;0.70;0.70;;;6.50;99.90;;;;;;4975208;28;20110;-91
2023/01/31 08:05:51;;;;;;;0.70;0.70;;;6.50;99.90;;;;;;5000999;28;20135;-92
2023/01/31 08:08:26;;;;;;;;;;;;;;;;;;;;;
2023/01/31 08:10:55;;;;;;;0.70;0.70;;;6.50;99.90;;;;;;4979148;28;20045;-92
2023/01/31 08:13:21;;;;;;;0.70;0.70;;;6.60;99.90;;;;;;4964851;28;20452;-88
2023/01/31 08:15:49;;;;;;;0.70;0.70;;;6.60;99.90;;;;;;4974338;28;20053;-89
2023/01/31 08:18:15;;;;;;;0.70;0.70;;;6.60;99.90;;;;;;4975146;28;20053;-89
2023/01/31 08:20:46;;;;;;;0.80;0.80;;;6.60;99.90;;;;;;4983066;28;20056;-92
2023/01/31 08:23:12;;;;;;;0.70;0.70;;;6.60;99.90;;;;;;4959443;28;20552;-90
2023/01/31 08:25:38;;;;;;;0.70;0.70;;;6.60;99.90;;;;;;4997243;28;20563;-91
2023/01/31 08:28:07;;;;;;;0.60;0.60;;;6.60;99.90;;;;;;4965901;28;20048;-94
2023/01/31 08:30:32;;;;;;;0.70;0.70;;;6.60;99.90;;;;;;4991028;28;20048;-93
2023/01/31 08:32:59;;;;;;;0.70;0.70;;;6.60;99.90;;;;;;4976852;28;20893;-92
2023/01/31 08:35:26;;;;;;;0.60;0.60;;;6.70;99.90;;;;;;4967775;28;20044;-89
2023/01/31 08:37:54;;;;;;;0.70;0.70;;;6.60;99.90;;;;;;4955729;28;20045;-91
2023/01/31 08:40:21;;;;;;;0.70;0.70;;;6.60;99.90;;;;;;4977365;28;20044;-90
2023/01/31 08:45:49;;;;;;;0.70;0.70;;;6.60;99.90;;;;;;4957620;28;20049;-91
2023/01/31 08:48:15;;;;;;;0.70;0.70;;;6.60;99.90;;;;;;4965753;28;20368;-91
2023/01/31 08:50:41;;;;;;;0.70;0.70;;;6.60;99.90;;;;;;4971563;28;20514;-91
2023/01/31 08:53:07;;;;;;;0.80;0.80;;;6.60;99.90;;;;;;4963590;28;20628;-90
2023/01/31 08:55:34;;;;;;;0.70;0.70;;;6.60;99.90;;;;;;4963629;28;20598;-92
2023/01/31 08:58:04;;;;;;;0.70;0.70;;;6.70;99.90;;;;;;4967622;28;20550;-90
2023/01/31 09:00:42;;;;;;;0.80;0.80;;;6.70;99.90;;;;;;4972122;28;20037;-92
2023/01/31 09:03:17;;;;;;;0.70;0.70;;;6.70;99.90;;;;;;4965268;28;20159;-93
2023/01/31 09:06:11;;;;;;;0.70;0.70;;;6.70;99.90;;;;;;4961723;28;20241;-89
2023/01/31 09:08:40;;;;;;;0.80;0.80;;;6.80;99.90;;;;;;4961279;28;20053;-92
2023/01/31 09:11:06;;;;;;;0.70;0.70;;;6.80;99.90;;;;;;4958395;28;20487;-90
2023/01/31 09:13:35;;;;;;;0.70;0.70;;;6.80;99.90;;;;;;4957399;28;20377;-88
2023/01/31 09:16:04;;;;;;;0.70;0.70;;;6.90;99.90;;;;;;4957401;28;20686;-88
2023/01/31 09:18:34;;;;;;;0.70;0.70;;;6.90;99.90;;;;;;4959434;28;20183;-87
2023/01/31 09:21:23;;;;;;;0.70;0.70;;;6.90;99.90;;;;;;4961983;28;20048;-90
2023/01/31 09:24:02;;;;;;;0.70;0.70;;;7.00;99.90;;;;;;4967724;28;20045;-91
2023/01/31 09:26:31;;;;;;;0.70;0.70;;;6.90;99.90;;;;;;4959410;28;20286;-92
2023/01/31 09:29:00;;;;;;;0.70;0.70;;;7.00;99.90;;;;;;4967919;28;20063;-92
2023/01/31 09:31:31;;;;;;;0.70;0.70;;;7.00;99.90;;;;;;4959801;28;20080;-93
2023/01/31 09:34:09;;;;;;;0.70;0.70;;;7.00;99.90;;;;;;4976189;28;20745;-91
2023/01/31 09:36:34;;;;;;;0.70;0.70;;;7.00;99.90;;;;;;4958733;28;20341;-92
2023/01/31 09:39:03;;;;;;;0.70;0.70;;;7.10;99.90;;;;;;4945951;28;20055;-89
2023/01/31 09:41:41;;;;;;;0.70;0.70;;;7.10;99.90;;;;;;4959675;28;20057;-93
2023/01/31 09:44:26;;;;;;;0.70;0.70;;;7.20;99.90;;;;;;4964296;28;20076;-90
2023/01/31 09:47:16;;;;;;;0.70;0.70;;;7.30;99.90;;;;;;4984979;28;20155;-92
2023/01/31 09:49:53;;;;;;;0.70;0.70;;;7.30;99.90;;;;;;4986313;28;20052;-93
2023/01/31 09:52:21;;;;;;;0.70;0.70;;;7.30;99.90;;;;;;5002429;28;20055;-91
2023/01/31 09:54:47;;;;;;;0.70;0.70;;;7.40;99.90;;;;;;4964883;28;20828;-89
2023/01/31 09:57:50;;;;;;;0.70;0.70;;;7.40;99.90;;;;;;4975602;28;20056;-91
2023/01/31 10:00:35;;;;;;;0.70;0.70;;;7.50;99.90;;;;;;4980553;28;20084;-87
2023/01/31 10:03:44;;;;;;;0.70;0.70;;;7.50;99.90;;;;;;5000135;28;20055;-87
2023/01/31 10:06:29;;;;;;;0.70;0.70;;;7.60;99.90;;;;;;4985881;28;20041;-91
2023/01/31 10:09:15;;;;;;;0.70;0.70;;;7.60;99.90;;;;;;4972491;28;20058;-89
2023/01/31 10:11:43;;;;;;;0.70;0.70;;;7.60;99.90;;;;;;4969773;28;20523;-87
2023/01/31 10:14:34;;;;;;;0.70;0.70;;;7.60;99.90;;;;;;4987588;28;20049;-89
2023/01/31 10:17:17;;;;;;;0.70;0.70;;;7.60;99.90;;;;;;4970916;28;20300;-89
2023/01/31 10:20:18;;;;;;;0.70;0.70;;;7.60;99.90;;;;;;4997467;28;20122;-87
2023/01/31 10:22:59;;;;;;;0.70;0.70;;;7.60;99.90;;;;;;4988633;28;20131;-89
2023/01/31 10:25:27;;;;;;;0.70;0.70;;;7.60;99.90;;;;;;4990954;28;20467;-85
2023/01/31 10:28:21;;;;;;;0.70;0.70;;;7.60;99.90;;;;;;4971009;28;20037;-93
2023/01/31 10:30:58;;;;;;;0.70;0.70;;;7.70;99.90;;;;;;4981147;28;20048;-89
2023/01/31 10:33:48;;;;;;;0.70;0.70;;;7.70;99.90;;;;;;5003412;28;20059;-89
2023/01/31 10:36:34;;;;;;;0.70;0.70;;;7.70;99.90;;;;;;4971272;28;20213;-90
2023/01/31 10:39:06;;;;;;;0.70;0.70;;;7.80;99.90;;;;;;4979055;28;20044;-88
2023/01/31 10:42:05;;;;;;;0.70;0.70;;;7.80;99.90;;;;;;4983960;28;20428;-90
2023/01/31 10:44:42;;;;;;;0.70;0.70;;;7.80;99.90;;;;;;4983653;28;20095;-88
2023/01/31 10:47:20;;;;;;;0.70;0.70;;;7.90;99.90;;;;;;4983311;28;20056;-91
2023/01/31 10:49:49;;;;;;;0.70;0.70;;;7.80;99.90;;;;;;4983637;28;20109;-88
2023/01/31 10:52:52;;;;;;;0.70;0.70;;;7.80;99.90;;;;;;4967148;28;20383;-88
2023/01/31 10:55:21;;;;;;;0.70;0.70;;;7.70;99.90;;;;;;4979226;28;20505;-86
2023/01/31 10:57:50;;;;;;;0.70;0.70;;;7.70;99.90;;;;;;4988002;28;20047;-92
2023/01/31 11:00:29;;;;;;;0.60;0.60;;;7.70;99.90;;;;;;4988855;28;20041;-94
2023/01/31 11:02:58;;;;;;;0.70;0.70;;;7.70;99.90;;;;;;4986481;28;20088;-89
2023/01/31 11:05:29;;;;;;;0.70;0.70;;;7.80;99.90;;;;;;4983338;28;20407;-91
2023/01/31 11:08:19;;;;;;;0.70;0.70;;;7.80;99.90;;;;;;4983070;28;20186;-88
2023/01/31 11:10:53;;;;;;;0.70;0.70;;;7.70;99.90;;;;;;4989814;28;20504;-86
2023/01/31 11:13:19;;;;;;;22.60;18.70;;;7.80;99.90;;;;;;4974540;28;20044;-90
2023/01/31 11:15:52;;;;;;;0.70;0.70;;;7.80;99.90;;;;;;4980663;28;20155;-92
2023/01/31 11:18:37;;;;;;;0.65;0.65;;;7.80;99.90;;;;;;4988354;28;20048;-93
2023/01/31 11:21:17;;;;;;;0.70;0.70;;;7.60;99.90;;;;;;4988487;28;20083;-93
2023/01/31 11:23:50;;;;;;;0.70;0.70;;;7.70;99.90;;;;;;5004941;28;20048;-90
2023/01/31 11:26:42;;;;;;;0.70;0.70;;;7.70;99.90;;;;;;5009586;28;20051;-92
2023/01/31 11:29:35;;;;;;;0.70;0.70;;;7.60;99.90;;;;;;5013495;28;20991;-90
2023/01/31 11:32:06;;;;;;;0.70;0.70;;;7.60;99.90;;;;;;4985925;28;20060;-90
2023/01/31 11:34:32;;;;;;;0.70;0.70;;;7.60;99.90;;;;;;4983869;28;20055;-91
2023/01/31 11:37:19;;;;;;;0.70;0.70;;;7.60;99.90;;;;;;4980912;28;20493;-87
2023/01/31 11:40:25;;;;;;;;;;;7.60;99.90;;;;;;4997723;28;20772;-91
2023/01/31 11:43:24;;;;;;;0.70;0.70;;;7.50;99.90;;;;;;4990294;28;19925;-91
2023/01/31 11:46:01;;;;;;;0.60;0.60;;;7.50;99.90;;;;;;4983660;28;20131;-91
2023/01/31 11:48:41;;;;;;;0.70;0.70;;;7.60;99.90;;;;;;4984665;28;20067;-90
2023/01/31 11:51:22;;;;;;;0.70;0.70;;;7.50;99.90;;;;;;4980760;28;20049;-89
2023/01/31 11:53:50;;;;;;;0.70;0.70;;;7.50;99.90;;;;;;5003738;28;20045;-90
2023/01/31 11:56:45;;;;;;;0.70;0.70;;;7.50;99.90;;;;;;4968703;28;20079;-89
2023/01/31 11:59:33;;;;;;;0.70;0.70;;;7.60;99.90;;;;;;4984919;28;20048;-92
2023/01/31 12:02:05;;;;;;;0.70;0.70;;;7.50;99.90;;;;;;5002336;28;21002;-94
2023/01/31 12:04:45;;;;;;;0.70;0.70;;;7.50;99.90;;;;;;4988433;28;20267;-92
2023/01/31 12:07:24;;;;;;;0.70;0.70;;;7.60;99.90;;;;;;4999279;28;20197;-92
2023/01/31 12:10:02;;;;;;;0.70;0.70;;;7.50;99.90;;;;;;5005705;28;20117;-93
2023/01/31 12:12:34;;;;;;;0.70;0.70;;;7.70;99.90;;;;;;4985500;28;20109;-90
2023/01/31 12:15:13;;;;;;;0.80;0.80;;;7.60;99.90;;;;;;4981986;28;20048;-93
2023/01/31 12:17:51;;;;;;;0.70;0.70;;;7.60;99.90;;;;;;4987149;28;20060;-89
2023/01/31 12:20:36;;;;;;;0.70;0.70;;;7.60;99.90;;;;;;4989352;28;20058;-93
2023/01/31 12:23:19;;;;;;;0.80;0.80;;;7.70;99.90;;;;;;4987448;28;20200;-87
2023/01/31 12:25:59;;;;;;;0.70;0.70;;;7.70;99.90;;;;;;4982695;28;20163;-91
2023/01/31 12:29:24;;;;;;;0.70;0.70;;;7.70;99.90;;;;;;4984098;28;20129;-92
2023/01/31 12:32:20;;;;;;;0.70;0.70;;;7.70;99.90;;;;;;4913582;28;20063;-94
2023/01/31 12:38:31;;;;;;;0.70;0.70;;;7.80;99.90;;;;;;5013170;28;20636;-92
2023/01/31 12:41:03;;;;;;;0.70;0.70;;;8.00;99.90;;;;;;4982366;28;20062;-91
2023/01/31 12:43:41;;;;;;;0.70;0.70;;;8.00;99.90;;;;;;4983973;28;20050;-89
2023/01/31 12:46:28;;;;;;;0.70;0.70;;;8.00;99.90;;;;;;5006368;28;20056;-91
2023/01/31 12:49:35;;;;;;;0.70;0.70;;;8.00;99.90;;;;;;5000018;28;20087;-94
2023/01/31 12:52:25;;;;;;;0.70;0.70;;;8.00;99.90;;;;;;5005862;28;20105;-90
2023/01/31 12:55:03;;;;;;;0.70;0.70;;;8.00;99.90;;;;;;4986587;28;20080;-89
2023/01/31 12:58:06;;;;;;;0.70;0.70;;;8.10;99.90;;;;;;4983236;28;20345;-92
2023/01/31 13:01:11;;;;;;;0.70;0.70;;;8.20;99.90;;;;;;4990599;28;20548;-94
2023/01/31 13:04:06;;;;;;;0.70;0.70;;;8.20;99.90;;;;;;4978321;28;20051;-94
2023/01/31 13:06:48;;;;;;;0.70;0.70;;;8.20;99.90;;;;;;4909215;28;20059;-89
2023/01/31 13:09:24;;;;;;;0.70;0.70;;;8.30;99.90;;;;;;4975928;28;20056;-91
2023/01/31 13:12:13;;;;;;;0.70;0.70;;;8.20;99.90;;;;;;5007804;28;20051;-94
2023/01/31 13:14:53;;;;;;;0.65;0.65;;;8.20;99.90;;;;;;4988118;28;20101;-94
2023/01/31 13:17:30;;;;;;;0.60;0.60;;;8.30;99.90;;;;;;5005308;28;20052;-93
2023/01/31 13:20:28;;;;;;;0.70;0.70;;;8.30;99.90;;;;;;4983322;28;20052;-93
2023/01/31 13:23:05;;;;;;;0.60;0.60;;;8.50;99.90;;;;;;4982670;28;20742;-92
2023/01/31 13:25:42;;;;;;;0.70;0.70;;;8.50;99.90;;;;;;4985214;28;20948;-92
2023/01/31 13:28:41;;;;;;;0.60;0.60;;;8.50;99.90;;;;;;5001169;28;20040;-92
2023/01/31 13:31:36;;;;;;;0.60;0.60;;;8.60;99.90;;;;;;4987842;28;20061;-92
2023/01/31 13:34:58;;;;;;;0.60;0.60;;;8.70;99.90;;;;;;4978842;28;20056;-91
2023/01/31 13:37:32;;;;;;;0.60;0.60;;;8.80;99.90;;;;;;4960882;28;20064;-91
2023/01/31 13:40:21;;;;;;;0.60;0.60;;;8.80;99.90;;;;;;4999804;28;20098;-93
2023/01/31 13:42:52;;;;;;;0.60;0.60;;;8.90;99.90;;;;;;4981400;28;20241;-91
2023/01/31 13:45:53;;;;;;;0.60;0.60;;;8.90;99.90;;;;;;4978864;28;20759;-89
2023/01/31 13:48:54;;;;;;;0.60;0.60;;;9.10;99.90;;;;;;4969206;28;20812;-88
2023/01/31 13:51:53;;;;;;;0.70;0.70;;;9.10;99.90;;;;;;4969032;28;20202;-93
2023/01/31 13:54:27;;;;;;;0.60;0.60;;;9.20;99.90;;;;;;4959646;28;20527;-88
2023/01/31 13:56:57;;;;;;;0.60;0.60;;;9.10;99.90;;;;;;4988406;28;20042;-91
2023/01/31 13:59:33;;;;;;;0.70;0.70;;;9.10;99.90;;;;;;4964263;28;20960;-92
2023/01/31 14:02:19;;;;;;;0.60;0.60;;;9.00;99.90;;;;;;5003706;28;20097;-90
2023/01/31 14:04:46;;;;;;;0.70;0.70;;;9.00;99.90;;;;;;4977491;28;20299;-92
2023/01/31 14:07:20;;;;;;;0.60;0.60;;;9.00;99.90;;;;;;4966649;28;20292;-89
2023/01/31 14:09:49;;;;;;;0.60;0.60;;;9.00;99.90;;;;;;4985292;28;20047;-90
2023/01/31 14:12:15;;;;;;;0.60;0.60;;;9.00;99.90;;;;;;4980622;28;20046;-90
2023/01/31 14:14:50;;;;;;;0.60;0.60;;;9.10;99.90;;;;;;4981720;28;20044;-89
2023/01/31 14:17:28;;;;;;;0.60;0.60;;;9.10;99.90;;;;;;4988309;28;20048;-93
2023/01/31 14:19:56;;;;;;;0.60;0.60;;;9.10;99.90;;;;;;4986183;28;20044;-92
2023/01/31 14:22:37;;;;;;;0.60;0.60;;;9.00;99.90;;;;;;5008180;28;20051;-91